Time;durP1;ratioP1;P1;durP2;ratioP2;P2;SDS_P1;SDS_P2;PMS_P1;PMS_P2;Temp;Humidity;BMP_temperature;BMP_pressure;BME280_temperature;BME280_humidity;BME280_pressure;Samples;Min_cycle;Max_cycle;Signal;HPM_P1;HPM_P2
2022/07/26 00:02:17;;;;;;;5.37;3.50;;;20.80;99.90;20.30;99545;;;;589279;244;24112;-84
2022/07/26 00:04:44;;;;;;;4.83;4.50;;;20.80;99.90;20.40;99536;;;;590166;242;23132;-84
2022/07/26 00:07:12;;;;;;;3.93;3.70;;;20.80;99.90;20.40;99536;;;;590123;243;24143;-83
2022/07/26 00:09:40;;;;;;;3.30;3.10;;;20.90;99.90;20.40;99533;;;;589827;243;24116;-83
2022/07/26 00:12:10;;;;;;;9.00;3.27;;;21.00;99.90;20.50;99531;;;;589780;243;24198;-84
2022/07/26 00:14:38;;;;;;;3.90;3.53;;;21.00;99.90;20.50;99517;;;;590091;243;24117;-84
2022/07/26 00:17:09;;;;;;;3.33;3.13;;;21.00;99.90;20.50;99519;;;;589900;244;23137;-81
2022/07/26 00:19:33;;;;;;;3.93;3.50;;;21.00;99.90;20.50;99510;;;;589287;244;24118;-83
2022/07/26 00:24:48;;;;;;;3.50;3.20;;;21.00;99.90;20.50;99507;;;;589617;244;24168;-84
2022/07/26 00:27:16;;;;;;;6.60;3.70;;;21.00;99.90;20.50;99510;;;;589192;244;24096;-82
2022/07/26 00:29:46;;;;;;;3.80;3.50;;;21.00;99.90;20.50;99515;;;;589391;244;25256;-81
2022/07/26 00:32:17;;;;;;;4.00;3.67;;;21.00;99.90;20.50;99510;;;;589846;244;24123;-83
2022/07/26 00:34:42;;;;;;;3.57;3.37;;;21.00;99.90;20.50;99499;;;;589996;244;23089;-84
2022/07/26 00:37:10;;;;;;;3.53;3.27;;;21.00;99.90;20.50;99497;;;;589406;244;23102;-84
2022/07/26 00:39:38;;;;;;;3.47;3.27;;;21.00;99.90;20.50;99503;;;;589183;244;24075;-85
2022/07/26 00:42:06;;;;;;;3.87;3.57;;;21.00;99.90;20.60;99504;;;;589410;244;24099;-85
2022/07/26 00:44:39;;;;;;;6.17;3.90;;;21.00;99.90;20.60;99503;;;;589532;244;23090;-84
2022/07/26 00:47:07;;;;;;;4.00;3.40;;;21.00;99.90;20.60;99507;;;;588928;244;24110;-83
2022/07/26 00:49:35;;;;;;;3.73;2.93;;;21.00;99.90;20.60;99495;;;;589291;244;23116;-83
2022/07/26 00:52:03;;;;;;;3.70;3.40;;;21.10;99.90;20.60;99496;;;;588905;244;23120;-83
2022/07/26 00:54:30;;;;;;;4.60;3.30;;;21.10;99.90;20.60;99515;;;;588970;244;24081;-85
2022/07/26 00:57:00;;;;;;;3.43;3.23;;;21.10;99.90;20.60;99515;;;;588983;244;24080;-86
2022/07/26 00:59:28;;;;;;;3.90;3.60;;;21.10;99.90;20.60;99508;;;;589117;244;24084;-85
2022/07/26 01:01:56;;;;;;;4.13;3.73;;;21.10;99.90;20.60;99504;;;;588954;244;23090;-84
2022/07/26 01:04:28;;;;;;;3.70;3.40;;;21.20;99.90;20.70;99496;;;;589302;244;24096;-84
2022/07/26 01:06:52;;;;;;;3.40;3.20;;;21.10;99.90;20.70;99489;;;;588885;244;23122;-83
2022/07/26 01:09:24;;;;;;;3.47;3.17;;;21.20;99.90;20.70;99498;;;;589249;244;24121;-85
2022/07/26 01:11:52;;;;;;;4.03;3.70;;;21.20;99.90;20.70;99495;;;;588965;244;24107;-85
2022/07/26 01:14:16;;;;;;;3.90;3.63;;;21.20;99.90;20.70;99491;;;;589117;244;24095;-86
2022/07/26 01:16:44;;;;;;;4.37;3.50;;;21.10;99.90;20.60;99485;;;;590001;242;24176;-84
2022/07/26 01:19:15;;;;;;;4.53;3.20;;;21.10;99.90;20.60;99484;;;;590488;243;23088;-84
2022/07/26 01:21:44;;;;;;;3.63;3.43;;;21.10;99.90;20.60;99489;;;;589894;243;23124;-84
2022/07/26 01:24:09;;;;;;;3.73;3.23;;;21.10;99.90;20.60;99486;;;;589661;243;24114;-83
2022/07/26 01:26:37;;;;;;;3.27;3.07;;;21.10;99.90;20.70;99483;;;;589858;244;24095;-86
2022/07/26 01:29:06;;;;;;;3.80;3.60;;;21.10;99.90;20.70;99480;;;;589795;244;24091;-83
2022/07/26 01:31:34;;;;;;;5.43;3.70;;;21.10;99.90;20.70;99471;;;;589837;244;23137;-83
2022/07/26 01:34:01;;;;;;;3.80;3.27;;;21.10;99.90;20.70;99475;;;;589674;244;24108;-85
2022/07/26 01:36:29;;;;;;;3.90;3.63;;;21.10;99.90;20.70;99471;;;;589608;244;23133;-82
2022/07/26 01:38:57;;;;;;;3.60;3.30;;;21.10;99.90;20.60;99463;;;;589222;244;23141;-85
2022/07/26 01:41:26;;;;;;;3.30;3.10;;;21.10;99.90;20.60;99456;;;;589433;244;24065;-83
2022/07/26 01:43:55;;;;;;;3.70;3.50;;;21.00;99.90;20.60;99466;;;;589312;244;23109;-84
2022/07/26 01:46:23;;;;;;;4.00;3.60;;;21.00;99.90;20.50;99466;;;;589344;244;24166;-83
2022/07/26 01:48:53;;;;;;;4.20;3.33;;;21.00;99.90;20.50;99473;;;;589456;244;24075;-86
2022/07/26 01:51:22;;;;;;;5.70;3.90;;;21.00;99.90;20.50;99460;;;;589361;244;24084;-84
2022/07/26 01:53:50;;;;;;;4.53;3.57;;;21.00;99.90;20.50;99455;;;;589288;244;24065;-82
2022/07/26 01:56:17;;;;;;;4.50;3.13;;;21.00;99.90;20.50;99456;;;;589319;244;24141;-84
2022/07/26 01:58:45;;;;;;;3.97;3.60;;;21.00;99.90;20.40;99453;;;;589476;244;24104;-84
2022/07/26 02:01:14;;;;;;;4.30;3.40;;;20.90;99.90;20.40;99459;;;;589405;244;23117;-84
2022/07/26 02:03:42;;;;;;;4.47;3.33;;;20.90;99.90;20.40;99469;;;;588897;244;24069;-84
2022/07/26 02:06:10;;;;;;;3.77;3.47;;;20.90;99.90;20.40;99476;;;;589459;244;24128;-84
2022/07/26 02:08:39;;;;;;;3.53;3.30;;;20.80;99.90;20.40;99478;;;;589319;244;24064;-84
2022/07/26 02:11:07;;;;;;;4.00;3.47;;;20.80;99.90;20.30;99480;;;;589281;244;24080;-84
2022/07/26 02:13:35;;;;;;;5.97;3.43;;;20.80;99.90;20.30;99467;;;;589240;244;24150;-84
2022/07/26 02:16:03;;;;;;;3.90;3.67;;;20.80;99.90;20.30;99465;;;;584149;244;56977;-85
2022/07/26 02:18:31;;;;;;;4.10;3.77;;;20.80;99.90;20.20;99451;;;;589207;244;24072;-84
2022/07/26 02:21:05;;;;;;;3.90;3.60;;;20.70;99.90;20.20;99463;;;;589242;244;24120;-84
2022/07/26 02:23:29;;;;;;;3.93;3.63;;;20.70;99.90;20.20;99460;;;;588936;244;24085;-84
2022/07/26 02:25:57;;;;;;;4.63;3.30;;;20.70;99.90;20.10;99458;;;;588814;244;24087;-83
2022/07/26 02:28:29;;;;;;;4.20;3.97;;;20.60;99.90;20.10;99458;;;;590257;242;23097;-84
2022/07/26 02:30:53;;;;;;;3.73;3.50;;;20.60;99.90;20.00;99469;;;;589873;243;23097;-83
2022/07/26 02:33:21;;;;;;;4.93;3.87;;;20.50;99.90;20.00;99466;;;;589707;243;23101;-84
2022/07/26 02:35:49;;;;;;;4.40;4.00;;;20.50;99.90;20.00;99466;;;;589819;243;24103;-84
2022/07/26 02:38:18;;;;;;;3.83;3.50;;;20.40;99.90;19.90;99476;;;;589466;244;24104;-84
2022/07/26 02:40:49;;;;;;;3.80;3.50;;;20.40;99.90;19.90;99487;;;;589556;244;24073;-82
2022/07/26 02:43:16;;;;;;;4.30;3.90;;;20.40;99.90;19.90;99494;;;;590038;244;24124;-84
2022/07/26 02:45:44;;;;;;;4.20;3.90;;;20.40;99.90;19.90;99491;;;;590365;244;24101;-84
2022/07/26 02:48:14;;;;;;;4.10;3.80;;;20.40;99.90;19.90;99489;;;;589994;244;23110;-84
2022/07/26 02:50:41;;;;;;;4.00;3.60;;;20.40;99.90;19.90;99494;;;;589717;244;24122;-83
2022/07/26 02:53:09;;;;;;;3.37;3.17;;;20.40;99.90;19.90;99496;;;;589669;244;23126;-84
2022/07/26 02:55:37;;;;;;;4.10;3.70;;;20.30;99.90;19.80;99496;;;;589550;244;24068;-83
2022/07/26 02:58:05;;;;;;;3.50;3.30;;;20.30;99.90;19.80;99496;;;;589486;244;24061;-83
2022/07/26 03:00:33;;;;;;;3.63;3.33;;;20.30;99.90;19.90;99490;;;;589545;244;24108;-85
2022/07/26 03:03:01;;;;;;;3.80;3.50;;;20.40;99.90;19.90;99503;;;;589313;244;24147;-82
2022/07/26 03:05:29;;;;;;;4.13;3.23;;;20.40;99.90;19.90;99503;;;;589050;244;24088;-85
2022/07/26 03:07:57;;;;;;;3.77;3.47;;;20.40;99.90;19.90;99498;;;;588802;244;24158;-83
2022/07/26 03:10:25;;;;;;;3.73;3.53;;;20.40;99.90;19.90;99483;;;;589162;244;25176;-85
2022/07/26 03:12:53;;;;;;;4.57;3.17;;;20.40;99.90;20.00;99491;;;;589270;244;24065;-84
2022/07/26 03:15:21;;;;;;;4.30;2.93;;;20.50;99.90;20.00;99504;;;;589258;244;24112;-85
2022/07/26 03:17:52;;;;;;;5.70;3.30;;;20.50;99.90;20.10;99514;;;;589305;244;23111;-85
2022/07/26 03:20:23;;;;;;;4.10;3.70;;;20.60;99.90;20.20;99508;;;;589284;244;24068;-84
2022/07/26 03:22:47;;;;;;;3.80;3.50;;;20.60;99.90;20.20;99511;;;;588938;244;24094;-84
2022/07/26 03:25:15;;;;;;;4.13;3.50;;;20.70;99.90;20.30;99520;;;;589276;244;24079;-84
2022/07/26 03:27:43;;;;;;;4.83;3.60;;;20.70;99.90;20.30;99535;;;;589396;244;23109;-85
2022/07/26 03:30:11;;;;;;;4.87;3.10;;;20.80;99.90;20.30;99545;;;;589742;244;24089;-84
2022/07/26 03:32:43;;;;;;;6.00;3.70;;;20.80;99.90;20.30;99539;;;;589639;244;24091;-85
2022/07/26 03:35:07;;;;;;;3.60;3.40;;;20.80;99.90;20.30;99533;;;;589014;244;24070;-85
2022/07/26 03:37:35;;;;;;;3.70;3.40;;;20.80;99.90;20.40;99536;;;;589219;244;24073;-84
2022/07/26 03:40:09;;;;;;;4.83;4.43;;;20.80;99.90;20.30;99543;;;;590630;242;24147;-84
2022/07/26 03:42:33;;;;;;;5.27;4.30;;;20.80;99.90;20.20;99551;;;;589584;243;23097;-83
2022/07/26 03:45:01;;;;;;;7.57;4.50;;;20.70;99.90;20.10;99552;;;;590153;243;24164;-84
2022/07/26 03:47:29;;;;;;;7.13;4.47;;;20.60;99.90;20.00;99554;;;;590121;243;24109;-85
2022/07/26 03:49:57;;;;;;;7.93;4.90;;;20.50;99.90;19.90;99572;;;;590124;244;24080;-84
2022/07/26 03:52:26;;;;;;;7.93;4.90;;;20.40;99.90;19.80;99576;;;;590087;244;24100;-85
2022/07/26 03:54:54;;;;;;;7.70;4.73;;;20.30;99.90;19.70;99564;;;;590282;244;24134;-86
2022/07/26 03:57:22;;;;;;;5.90;5.37;;;20.20;99.90;19.70;99556;;;;589716;244;24120;-84
2022/07/26 03:59:50;;;;;;;6.13;5.53;;;20.20;99.90;19.60;99560;;;;589440;244;24084;-85
2022/07/26 04:02:18;;;;;;;5.20;4.70;;;20.10;99.90;19.60;99557;;;;589216;244;24124;-86
2022/07/26 04:04:45;;;;;;;5.50;5.00;;;20.00;99.90;19.50;99553;;;;588904;244;24116;-85
2022/07/26 04:07:13;;;;;;;5.57;5.07;;;20.00;99.90;19.50;99551;;;;588822;244;24088;-86
2022/07/26 04:09:41;;;;;;;5.33;4.93;;;20.00;99.90;19.50;99548;;;;588993;244;24119;-86
2022/07/26 04:12:09;;;;;;;9.00;5.60;;;20.00;99.90;19.50;99552;;;;588892;244;23107;-86
2022/07/26 04:14:41;;;;;;;6.33;5.37;;;20.10;99.90;19.60;99567;;;;589254;244;24080;-87
2022/07/26 04:17:06;;;;;;;5.40;4.97;;;20.00;99.90;19.60;99564;;;;588462;244;24124;-86
2022/07/26 04:19:34;;;;;;;7.60;5.17;;;20.10;99.90;19.60;99571;;;;588549;244;24069;-87
2022/07/26 04:22:01;;;;;;;7.20;5.60;;;20.20;99.90;19.70;99562;;;;588799;244;24092;-87
2022/07/26 04:24:29;;;;;;;8.05;6.40;;;20.20;99.90;19.80;99548;;;;583530;244;35249;-87
2022/07/26 04:26:57;;;;;;;5.97;5.47;;;20.30;99.90;19.80;99552;;;;588772;244;24167;-86
2022/07/26 04:29:26;;;;;;;8.07;5.50;;;20.40;99.90;19.90;99540;;;;588647;244;24079;-87
2022/07/26 04:31:54;;;;;;;6.00;5.50;;;20.40;99.90;20.00;99555;;;;588520;244;23143;-86
2022/07/26 04:34:22;;;;;;;6.20;5.30;;;20.50;99.90;20.00;99554;;;;589045;244;24131;-86
2022/07/26 04:36:53;;;;;;;12.00;5.33;;;20.60;99.90;20.00;99571;;;;589005;244;24108;-87
2022/07/26 04:39:23;;;;;;;5.87;5.37;;;20.60;99.90;20.10;99586;;;;588745;244;24057;-87
2022/07/26 04:41:46;;;;;;;6.27;5.77;;;20.60;99.90;20.10;99593;;;;588712;244;24062;-86
2022/07/26 04:44:14;;;;;;;6.73;5.60;;;20.60;99.90;20.00;99591;;;;588984;244;24061;-87
2022/07/26 04:46:42;;;;;;;6.93;5.60;;;20.60;99.90;20.00;99569;;;;588990;244;24088;-86
2022/07/26 04:49:10;;;;;;;11.03;6.10;;;20.50;99.90;20.00;99581;;;;581661;244;24056;-88
2022/07/26 04:51:38;;;;;;;9.93;6.10;;;20.50;99.90;20.10;99582;;;;579715;243;24055;-87
2022/07/26 04:54:06;;;;;;;7.63;5.70;;;20.60;99.90;20.10;99590;;;;582418;243;24094;-86
2022/07/26 04:56:34;;;;;;;9.37;6.40;;;20.60;99.90;20.20;99583;;;;582257;243;24075;-86
2022/07/26 04:59:02;;;;;;;8.50;7.57;;;20.70;99.90;20.20;99574;;;;577045;243;35229;-86
2022/07/26 05:01:30;;;;;;;8.23;5.03;;;20.70;99.90;20.20;99565;;;;581867;244;24088;-86
2022/07/26 05:03:58;;;;;;;6.70;5.57;;;20.70;99.90;20.10;99575;;;;579040;244;25156;-86
2022/07/26 05:06:26;;;;;;;7.53;5.73;;;20.60;99.90;20.00;99575;;;;581892;244;23132;-86
2022/07/26 05:08:54;;;;;;;6.23;5.70;;;20.60;99.90;20.00;99573;;;;581864;244;24107;-86
2022/07/26 05:11:22;;;;;;;6.53;5.93;;;20.50;99.90;19.80;99581;;;;578841;244;24103;-86
2022/07/26 05:13:49;;;;;;;6.80;6.07;;;20.40;99.90;19.70;99586;;;;582012;244;24046;-86
2022/07/26 05:16:18;;;;;;;6.83;6.20;;;20.30;99.90;19.70;99584;;;;582068;244;24084;-87
2022/07/26 05:18:46;;;;;;;8.93;6.57;;;20.20;99.90;19.60;99589;;;;579217;244;24075;-86
2022/07/26 05:21:18;;;;;;;5.77;5.13;;;20.00;99.90;19.50;99595;;;;579265;243;24064;-86
2022/07/26 05:23:44;;;;;;;6.03;5.53;;;19.80;99.90;19.40;99578;;;;581381;244;24078;-86
2022/07/26 05:26:12;;;;;;;6.27;5.47;;;19.80;99.90;19.30;99592;;;;578930;244;24114;-87
2022/07/26 05:28:39;;;;;;;9.93;6.23;;;19.70;99.90;19.20;99599;;;;587450;244;24090;-86
2022/07/26 05:31:07;;;;;;;9.07;6.80;;;19.70;99.90;19.20;99601;;;;578241;244;24089;-86
2022/07/26 05:33:35;;;;;;;8.47;7.63;;;19.70;99.90;19.10;99602;;;;581494;244;24095;-86
2022/07/26 05:36:06;;;;;;;8.60;7.03;;;19.60;99.90;19.00;99609;;;;581972;244;24148;-87
2022/07/26 05:38:31;;;;;;;8.13;6.97;;;19.50;99.90;18.90;99600;;;;579353;244;24074;-86
2022/07/26 05:40:59;;;;;;;8.40;7.57;;;19.40;99.90;18.90;99599;;;;581777;244;24082;-87
2022/07/26 05:43:27;;;;;;;9.30;7.70;;;19.30;99.90;18.90;99601;;;;581905;244;24099;-85
2022/07/26 05:45:58;;;;;;;10.17;7.63;;;19.30;99.90;18.80;99605;;;;582188;244;24104;-87
2022/07/26 05:48:27;;;;;;;8.97;8.07;;;19.30;99.90;18.80;99607;;;;578681;244;24107;-86
2022/07/26 05:50:51;;;;;;;8.83;7.80;;;19.30;99.90;18.80;99619;;;;578851;244;24099;-87
2022/07/26 05:53:19;;;;;;;8.40;7.60;;;19.30;99.90;18.90;99641;;;;582718;244;24079;-86
2022/07/26 05:55:47;;;;;;;11.27;7.60;;;19.30;99.90;18.90;99643;;;;579248;244;24068;-87
2022/07/26 05:58:14;;;;;;;8.57;7.50;;;19.30;99.90;18.90;99648;;;;578992;244;24093;-87
2022/07/26 06:00:42;;;;;;;8.87;8.00;;;19.40;99.90;18.90;99642;;;;582186;244;24114;-87
2022/07/26 06:03:23;;;;;;;9.67;8.53;;;19.40;99.90;19.00;99642;;;;583019;243;24062;-88
2022/07/26 06:05:51;;;;;;;11.30;8.67;;;19.40;99.90;19.00;99637;;;;583221;243;24068;-89
2022/07/26 06:08:19;;;;;;;11.13;8.43;;;19.40;99.90;18.90;99639;;;;579222;243;24061;-89
2022/07/26 06:10:47;;;;;;;6.90;6.30;;;19.40;99.90;18.90;99636;;;;579615;243;24064;-89
2022/07/26 06:13:18;;;;;;;7.87;4.90;;;19.40;99.90;18.80;99634;;;;579442;244;24084;-88
2022/07/26 06:15:43;;;;;;;5.23;4.77;;;19.30;99.90;18.70;99637;;;;579228;244;25170;-88
2022/07/26 06:18:10;;;;;;;8.73;5.10;;;19.20;99.90;18.60;99646;;;;579762;244;24049;-89
2022/07/26 06:20:41;;;;;;;5.90;5.27;;;19.10;99.90;18.60;99628;;;;579509;244;24133;-88
2022/07/26 06:23:10;;;;;;;6.43;4.60;;;19.10;99.90;18.50;99618;;;;578815;244;24111;-88
2022/07/26 06:25:35;;;;;;;6.93;5.10;;;19.00;99.90;18.50;99612;;;;582010;244;24090;-86
2022/07/26 06:28:07;;;;;;;5.83;5.23;;;19.00;99.90;18.50;99606;;;;579712;244;24079;-87
2022/07/26 06:30:34;;;;;;;5.67;5.23;;;19.00;99.90;18.50;99608;;;;579702;244;24075;-88
2022/07/26 06:33:02;;;;;;;5.80;5.30;;;19.00;99.90;18.50;99624;;;;579468;244;24098;-87
2022/07/26 06:35:33;;;;;;;8.00;5.30;;;19.00;99.90;18.50;99643;;;;579679;244;24063;-86
2022/07/26 06:37:58;;;;;;;5.50;5.07;;;18.90;99.90;18.60;99655;;;;579161;244;24059;-88
2022/07/26 06:40:27;;;;;;;7.43;5.30;;;19.10;99.90;18.60;99669;;;;579109;244;24100;-87
2022/07/26 06:42:55;;;;;;;6.43;5.67;;;19.10;99.90;18.70;99662;;;;579963;244;24054;-89
2022/07/26 06:45:23;;;;;;;9.07;5.80;;;19.10;99.90;18.80;99670;;;;581881;244;24079;-87
2022/07/26 06:47:51;;;;;;;4.93;4.43;;;19.20;99.90;18.90;99683;;;;581812;244;24054;-88
2022/07/26 06:50:19;;;;;;;4.53;4.13;;;19.40;99.90;19.10;99688;;;;581699;244;24079;-88
2022/07/26 06:52:47;;;;;;;4.20;3.80;;;19.50;99.90;19.20;99705;;;;587702;244;24088;-88
2022/07/26 06:55:15;;;;;;;5.67;4.10;;;19.70;99.90;19.20;99698;;;;582244;244;24103;-88
2022/07/26 06:57:42;;;;;;;3.90;3.43;;;19.70;99.90;19.20;99693;;;;579615;244;24085;-88
2022/07/26 07:00:10;;;;;;;4.80;4.30;;;19.80;99.90;19.30;99689;;;;582651;244;24055;-88
2022/07/26 07:02:38;;;;;;;4.07;3.67;;;19.80;99.90;19.30;99677;;;;579655;244;24097;-87
2022/07/26 07:05:10;;;;;;;4.07;3.53;;;19.80;99.90;19.30;99666;;;;582147;244;24111;-87
2022/07/26 07:07:38;;;;;;;3.40;3.10;;;19.80;99.90;19.30;99689;;;;579180;244;24125;-86
2022/07/26 07:10:06;;;;;;;5.23;4.13;;;19.80;99.90;19.30;99701;;;;579461;244;24067;-86
2022/07/26 07:12:31;;;;;;;5.60;4.00;;;19.80;99.90;19.30;99698;;;;579456;244;24068;-87
2022/07/26 07:15:00;;;;;;;9.07;4.73;;;19.80;99.90;19.30;99698;;;;581161;243;24063;-85
2022/07/26 07:17:28;;;;;;;7.87;4.70;;;19.80;99.90;19.40;99710;;;;583925;243;24063;-88
2022/07/26 07:19:56;;;;;;;4.10;3.67;;;19.80;99.90;19.40;99704;;;;583542;243;24066;-86
2022/07/26 07:22:24;;;;;;;7.00;4.80;;;19.90;99.90;19.50;99693;;;;582935;244;24092;-87
2022/07/26 07:24:52;;;;;;;4.83;3.67;;;20.00;99.90;19.60;99715;;;;582803;244;24040;-87
2022/07/26 07:27:20;;;;;;;4.70;3.43;;;20.10;99.90;19.70;99713;;;;582966;244;24073;-87
2022/07/26 07:29:48;;;;;;;6.83;4.07;;;20.20;99.90;19.70;99709;;;;582883;244;23064;-88
2022/07/26 07:32:16;;;;;;;4.50;3.73;;;20.20;99.90;19.60;99708;;;;582736;244;23088;-87
2022/07/26 07:34:44;;;;;;;17.63;10.57;;;20.20;99.90;19.60;99708;;;;579953;244;24052;-88
2022/07/26 07:37:12;;;;;;;5.00;4.37;;;20.10;99.90;19.60;99716;;;;579980;244;24057;-88
2022/07/26 07:39:39;;;;;;;8.50;4.33;;;20.20;99.90;19.60;99713;;;;582867;244;24087;-88
2022/07/26 07:42:08;;;;;;;6.03;3.67;;;20.20;99.90;19.70;99708;;;;582860;244;24049;-87
2022/07/26 07:44:35;;;;;;;4.50;3.13;;;20.30;99.90;19.80;99719;;;;582749;244;24081;-88
2022/07/26 07:47:03;;;;;;;4.63;3.77;;;20.30;99.90;19.90;99721;;;;582333;244;24133;-87
2022/07/26 07:49:32;;;;;;;6.20;3.60;;;20.50;99.90;20.00;99721;;;;588426;244;24061;-87
2022/07/26 07:52:00;;;;;;;3.63;3.33;;;20.50;99.90;20.10;99712;;;;582119;244;24058;-88
2022/07/26 07:54:28;;;;;;;2.90;2.70;;;20.60;99.90;20.40;99705;;;;579095;244;24089;-87
2022/07/26 07:56:56;;;;;;;4.67;2.93;;;20.90;99.90;20.70;99707;;;;581666;244;24093;-88
2022/07/26 07:59:24;;;;;;;2.77;2.53;;;21.60;99.90;21.10;99722;;;;582173;244;24081;-88
2022/07/26 08:01:52;;;;;;;10.33;7.60;;;21.50;99.90;21.30;99709;;;;581747;244;23095;-86
2022/07/26 08:04:20;;;;;;;6.10;3.30;;;21.80;99.90;21.50;99708;;;;579376;244;23065;-87
2022/07/26 08:06:48;;;;;;;4.47;2.73;;;22.00;99.90;21.60;99710;;;;582068;244;24037;-86
2022/07/26 08:09:16;;;;;;;8.20;4.63;;;22.20;99.90;21.80;99725;;;;582080;244;25172;-86
2022/07/26 08:11:44;;;;;;;5.27;3.00;;;22.30;99.90;21.90;99725;;;;582028;244;23069;-87
2022/07/26 08:14:12;;;;;;;4.73;3.00;;;22.40;99.90;22.00;99713;;;;581932;244;24046;-87
2022/07/26 08:16:40;;;;;;;3.10;2.80;;;22.50;99.90;22.10;99709;;;;582013;244;24064;-86
2022/07/26 08:19:08;;;;;;;6.67;3.30;;;22.60;99.90;22.40;99707;;;;582034;244;23083;-87
2022/07/26 08:21:37;;;;;;;4.33;2.67;;;22.90;99.90;22.80;99718;;;;582078;244;24096;-87
2022/07/26 08:24:07;;;;;;;4.00;2.60;;;23.30;99.90;23.20;99713;;;;582011;244;24053;-87
2022/07/26 08:26:32;;;;;;;3.80;2.73;;;23.70;99.90;23.30;99717;;;;580207;243;24074;-85
2022/07/26 08:29:00;;;;;;;5.17;2.70;;;23.80;99.90;23.40;99718;;;;582846;243;24127;-85
2022/07/26 08:31:28;;;;;;;4.73;2.57;;;23.90;99.90;23.50;99731;;;;582396;243;26240;-86
2022/07/26 08:33:56;;;;;;;4.07;2.17;;;24.00;99.90;23.60;99725;;;;582776;244;24147;-85
2022/07/26 08:36:28;;;;;;;2.67;2.00;;;24.20;99.90;23.70;99721;;;;579336;244;24142;-85
2022/07/26 08:38:59;;;;;;;6.00;3.30;;;24.20;99.90;23.90;99722;;;;582029;244;24117;-85
2022/07/26 08:41:24;;;;;;;5.50;2.60;;;24.40;99.90;24.10;99733;;;;582039;244;24056;-87
2022/07/26 08:43:51;;;;;;;4.70;3.00;;;24.50;99.90;24.30;99725;;;;581973;244;24078;-86
2022/07/26 08:46:26;;;;;;;4.07;2.70;;;24.70;99.90;24.40;99724;;;;582071;244;24129;-85
2022/07/26 08:48:50;;;;;;;2.93;2.53;;;24.90;99.90;24.50;99718;;;;578737;244;24145;-86
2022/07/26 08:51:18;;;;;;;5.70;2.70;;;24.90;99.90;24.70;99723;;;;582547;244;24104;-87
2022/07/26 08:53:49;;;;;;;3.13;2.60;;;25.20;99.90;25.90;99731;;;;579955;244;23206;-88
2022/07/26 08:56:14;;;;;;;3.80;2.07;;;26.00;99.90;26.80;99720;;;;579234;244;23086;-87
2022/07/26 08:58:43;;;;;;;5.97;2.50;;;28.30;99.90;28.10;99724;;;;582262;244;24072;-86
2022/07/26 09:01:14;;;;;;;4.57;1.97;;;28.20;99.90;29.40;99727;;;;582119;244;24076;-87
2022/07/26 09:03:38;;;;;;;4.33;2.37;;;29.60;99.90;30.80;99724;;;;578610;244;23085;-87
2022/07/26 09:06:15;;;;;;;2.80;2.05;;;31.00;98.90;31.80;99732;;;;578758;244;23075;-86
2022/07/26 09:08:46;;;;;;;3.12;1.87;;;32.20;94.90;32.60;99727;;;;578552;244;24116;-86
2022/07/26 09:11:23;;;;;;;5.43;1.95;;;33.10;90.50;32.90;99728;;;;578481;244;23078;-86
2022/07/26 09:13:51;;;;;;;2.92;1.95;;;33.50;85.50;34.30;99736;;;;588113;244;23068;-85
2022/07/26 09:16:19;;;;;;;2.78;2.15;;;34.70;79.20;34.90;99743;;;;578416;244;23091;-85
2022/07/26 09:18:50;;;;;;;3.78;1.62;;;35.40;74.10;34.90;99741;;;;581584;244;23182;-84
2022/07/26 09:21:30;;;;;;;2.22;1.95;;;35.50;69.90;35.40;99740;;;;587557;244;23185;-85
2022/07/26 09:23:58;;;;;;;5.60;2.12;;;35.90;67.60;35.90;99742;;;;578851;244;24111;-84
2022/07/26 09:26:26;;;;;;;3.53;2.15;;;36.50;65.30;35.90;99756;;;;578807;244;23387;-85
2022/07/26 09:29:10;;;;;;;5.95;2.35;;;36.90;61.70;36.30;99748;;;;578664;244;24085;-84
2022/07/26 09:31:38;;;;;;;3.67;1.70;;;36.80;62.40;35.80;99759;;;;579123;244;23092;-85
2022/07/26 09:34:06;;;;;;;3.97;1.70;;;36.70;59.60;36.70;99762;;;;579036;244;24144;-85
2022/07/26 09:36:34;;;;;;;2.00;1.90;;;37.20;58.60;36.90;99756;;;;579400;242;23072;-85
2022/07/26 09:39:03;;;;;;;2.08;1.87;;;37.50;58.10;37.20;99766;;;;577506;243;23077;-84
2022/07/26 09:41:31;;;;;;;2.80;2.00;;;37.90;56.90;37.10;99765;;;;580057;243;24111;-85
2022/07/26 09:44:07;;;;;;;2.42;1.98;;;38.00;56.40;37.20;99766;;;;579608;243;23144;-84
2022/07/26 09:46:34;;;;;;;2.25;2.05;;;37.90;56.30;37.00;99772;;;;579164;244;23084;-84
2022/07/26 09:48:59;;;;;;;2.28;2.00;;;37.90;55.40;37.20;99777;;;;586015;244;23071;-82
2022/07/26 09:51:34;;;;;;;5.05;1.98;;;37.40;54.70;36.30;99771;;;;578202;244;23122;-85
2022/07/26 09:54:03;;;;;;;3.17;2.10;;;37.40;54.70;36.50;99774;;;;574404;245;23072;-85
2022/07/26 09:56:45;;;;;;;2.12;1.52;;;37.80;53.80;37.40;99768;;;;585251;242;23060;-84
2022/07/26 09:59:15;;;;;;;3.35;1.90;;;37.80;53.70;37.70;99773;;;;570285;246;23072;-86
2022/07/26 10:01:46;;;;;;;2.03;1.83;;;38.40;53.20;37.80;99776;;;;570180;246;35151;-85
2022/07/26 10:04:14;;;;;;;4.55;2.10;;;38.70;52.40;37.50;99773;;;;574037;247;23090;-84
2022/07/26 10:06:41;;;;;;;5.60;1.70;;;38.50;51.70;37.80;99776;;;;584976;242;24102;-85
2022/07/26 10:09:06;;;;;;;1.62;1.37;;;38.60;52.70;37.70;99778;;;;571271;247;23065;-85
2022/07/26 10:11:56;;;;;;;1.30;1.27;;;38.60;51.10;37.40;99768;;;;578828;242;23090;-85
2022/07/26 10:14:33;;;;;;;3.00;1.60;;;38.40;50.40;37.70;99772;;;;579713;245;23113;-85
2022/07/26 10:17:05;;;;;;;2.78;1.37;;;38.50;51.20;38.10;99791;;;;584632;242;23044;-85
2022/07/26 10:19:38;;;;;;;2.47;1.67;;;38.90;49.40;37.60;99789;;;;584604;242;24179;-84
2022/07/26 10:22:29;;;;;;;1.42;1.33;;;38.60;49.70;37.30;99789;;;;574089;246;24161;-85
2022/07/26 10:24:59;;;;;;;2.37;1.62;;;37.90;51.00;37.00;99797;;;;578185;242;24128;-85
2022/07/26 10:27:45;;;;;;;1.65;1.25;;;37.80;50.40;37.30;99791;;;;573522;247;23101;-85
2022/07/26 10:30:18;;;;;;;5.40;1.70;;;37.90;50.80;38.20;99801;;;;574499;245;23075;-85
2022/07/26 10:33:01;;;;;;;4.93;1.83;;;38.70;50.20;38.10;99807;;;;591241;241;23084;-84
2022/07/26 10:35:42;;;;;;;4.10;1.70;;;38.80;49.40;37.80;99799;;;;584981;242;23077;-84
2022/07/26 10:38:21;;;;;;;3.10;1.20;;;37.90;49.50;36.80;99797;;;;573993;246;23142;-84
2022/07/26 10:41:01;;;;;;;1.90;1.42;;;37.90;49.40;36.50;99802;;;;584816;242;23074;-84
2022/07/26 10:43:33;;;;;;;3.10;1.30;;;37.00;51.10;36.10;99808;;;;573729;246;23121;-85
2022/07/26 10:46:22;;;;;;;3.08;1.40;;;37.00;51.10;35.50;99810;;;;581375;242;23042;-84
2022/07/26 10:49:02;;;;;;;2.60;1.65;;;36.40;51.60;35.10;99812;;;;575670;246;23141;-83
2022/07/26 10:51:31;;;;;;;1.40;1.30;;;35.90;53.40;34.70;99811;;;;585850;240;23110;-83
2022/07/26 10:54:07;;;;;;;1.55;1.45;;;35.40;53.00;34.50;99821;;;;575175;246;23094;-84
2022/07/26 10:56:38;;;;;;;1.92;1.48;;;34.90;53.90;34.10;99812;;;;570273;247;23072;-84
2022/07/26 10:59:03;;;;;;;5.05;1.50;;;34.50;54.40;33.60;99822;;;;585483;242;23054;-83
2022/07/26 11:01:36;;;;;;;2.58;1.50;;;34.00;55.80;33.30;99826;;;;585744;241;23051;-83
2022/07/26 11:04:04;;;;;;;5.85;1.20;;;33.60;56.40;32.90;99820;;;;574276;246;23101;-84
2022/07/26 11:06:35;;;;;;;3.12;1.40;;;33.20;57.20;32.70;99825;;;;585399;242;23065;-83
2022/07/26 11:09:01;;;;;;;1.45;1.27;;;33.00;57.80;32.20;99825;;;;574293;245;23162;-83
2022/07/26 11:11:29;;;;;;;2.42;1.25;;;32.60;57.40;31.50;99828;;;;582022;246;23177;-85
2022/07/26 11:14:09;;;;;;;2.03;1.77;;;32.00;58.60;30.80;99822;;;;585042;242;23047;-84
2022/07/26 11:16:37;;;;;;;2.37;1.30;;;31.30;59.50;30.00;99830;;;;581344;242;23048;-83
2022/07/26 11:19:26;;;;;;;6.72;1.65;;;30.60;60.00;29.30;99834;;;;573128;246;23078;-84
2022/07/26 11:21:53;;;;;;;3.87;1.45;;;29.90;62.30;28.70;99838;;;;593415;241;24065;-83
2022/07/26 11:24:25;;;;;;;1.77;1.30;;;29.20;64.10;28.50;99837;;;;578249;244;23124;-84
2022/07/26 11:26:52;;;;;;;1.53;1.43;;;28.90;64.60;28.60;99839;;;;573371;247;24091;-84
2022/07/26 11:29:26;;;;;;;3.40;1.47;;;28.90;65.80;28.80;99836;;;;583972;241;23085;-84